PWSweather.com
Personal Weather Stations
Station Observations
ITROMSTR4
From Fagereng Towards West Sandnessundet, TromsoeNO 9013

From Fagereng Towards West SandnessundetTromsoeNO 9013

Lat: 69.644853, Lon: 18.908345

Elevation: 150

Station Type: WH-1080

http://www.hugooien.no/?go=weather

Latest ConditionsUpdated 2:45:00 PM GMT+01:01 Sunday, Jun 16, 2019
Currently Today's Max Today's Min Today's Average
Temperature 60.1°F15.6°C 61.2°F16.2°C 43.2°F6.2°C 48.6°F9.2°C
Dew Point 37.5°F3.1°C 41.3°F5.2°C 37.0°F2.8°C 39.1°F3.9°C
Winds 5.4 mph NE8.7 kmh NE 8.9 mph -14.3 kmh - - 3.4 mph 5.5 kmh
Wind Gusts 15.2 mph24.5 kmh 15.2 mph24.5 kmh - -
Humidity 43% 87% 43% 71%
Pressure 31.05 in1051.5 mb 31.12 in1053.8 mb 31.05 in1051.5 mb -
Hour Temp Dew Point Humidity Winds Wind Gusts Pressure Precip Precip Rate Daily Precip Total
02:45 PM 60.1°F15.6°C 37.5°F3.1°C 43% 5.4 mph NE8.7 kmh NE 15.2 mph24.5 kmh 31.05 in1051.5 mb 0.00 in0.0 mm 0.00 in0.0 mm 0.00 in0.0 mm
02:40 PM 61.0°F16.1°C 38.3°F3.5°C 43% 5.0 mph NE8.0 kmh NE 12.1 mph19.5 kmh 31.05 in1051.5 mb 0.00 in0.0 mm 0.00 in0.0 mm 0.00 in0.0 mm
02:35 PM 59.5°F15.3°C 37.6°F3.1°C 44% 5.9 mph NE9.5 kmh NE 12.1 mph19.5 kmh 31.05 in1051.5 mb 0.00 in0.0 mm 0.00 in0.0 mm 0.00 in0.0 mm
02:30 PM 59.5°F15.3°C 38.8°F3.8°C 46% 5.7 mph NE9.2 kmh NE 12.1 mph19.5 kmh 31.05 in1051.5 mb 0.00 in0.0 mm 0.00 in0.0 mm 0.00 in0.0 mm
02:25 PM 59.0°F15.0°C 39.9°F4.4°C 49% 6.5 mph N10.5 kmh N 12.1 mph19.5 kmh 31.05 in1051.5 mb 0.00 in0.0 mm 0.00 in0.0 mm 0.00 in0.0 mm
02:20 PM 58.1°F14.5°C 39.1°F3.9°C 49% 7.7 mph N12.4 kmh N 13.6 mph21.9 kmh 31.05 in1051.5 mb 0.00 in0.0 mm 0.00 in0.0 mm 0.00 in0.0 mm
02:15 PM 57.7°F14.3°C 39.2°F4.0°C 50% 8.9 mph N14.3 kmh N 15.2 mph24.5 kmh 31.05 in1051.5 mb 0.00 in0.0 mm 0.00 in0.0 mm 0.00 in0.0 mm
02:10 PM 57.7°F14.3°C 38.7°F3.7°C 49% 8.1 mph N13.0 kmh N 15.2 mph24.5 kmh 31.05 in1051.5 mb 0.00 in0.0 mm 0.00 in0.0 mm 0.00 in0.0 mm
02:05 PM 59.7°F15.4°C 40.5°F4.7°C 49% 6.1 mph N9.8 kmh N 13.6 mph21.9 kmh 31.05 in1051.5 mb 0.00 in0.0 mm 0.00 in0.0 mm 0.00 in0.0 mm
02:00 PM 59.2°F15.1°C 40.6°F4.8°C 50% 5.9 mph NNW9.5 kmh NNW 14.5 mph23.3 kmh 31.05 in1051.5 mb 0.00 in0.0 mm 0.00 in0.0 mm 0.00 in0.0 mm
01:55 PM 59.2°F15.1°C 39.0°F3.9°C 47% 6.4 mph NNW10.3 kmh NNW 14.5 mph23.3 kmh 31.05 in1051.5 mb 0.00 in0.0 mm 0.00 in0.0 mm 0.00 in0.0 mm
01:50 PM 58.8°F14.9°C 38.6°F3.7°C 47% 6.1 mph N9.8 kmh N 10.7 mph17.2 kmh 31.05 in1051.5 mb 0.00 in0.0 mm 0.00 in0.0 mm 0.00 in0.0 mm
01:45 PM 59.4°F15.2°C 39.7°F4.3°C 48% 5.7 mph N9.2 kmh N 9.8 mph15.8 kmh 31.06 in1051.8 mb 0.00 in0.0 mm 0.00 in0.0 mm 0.00 in0.0 mm
01:40 PM 59.7°F15.4°C 39.5°F4.2°C 47% 5.3 mph NNE8.5 kmh NNE 9.8 mph15.8 kmh 31.06 in1051.8 mb 0.00 in0.0 mm 0.00 in0.0 mm 0.00 in0.0 mm
01:35 PM 59.4°F15.2°C 40.2°F4.6°C 49% 4.9 mph NE7.9 kmh NE 10.7 mph17.2 kmh 31.05 in1051.5 mb 0.00 in0.0 mm 0.00 in0.0 mm 0.00 in0.0 mm
01:30 PM 59.0°F15.0°C 40.4°F4.7°C 50% 5.7 mph NE9.2 kmh NE 11.4 mph18.3 kmh 31.05 in1051.5 mb 0.00 in0.0 mm 0.00 in0.0 mm 0.00 in0.0 mm
01:25 PM 57.6°F14.2°C 39.1°F3.9°C 50% 7.0 mph NNE11.3 kmh NNE 11.4 mph18.3 kmh 31.06 in1051.8 mb 0.00 in0.0 mm 0.00 in0.0 mm 0.00 in0.0 mm
01:20 PM 57.6°F14.2°C 39.1°F3.9°C 50% 7.1 mph NNE11.4 kmh NNE 11.4 mph18.3 kmh 31.06 in1051.8 mb 0.00 in0.0 mm 0.00 in0.0 mm 0.00 in0.0 mm
01:15 PM 57.9°F14.4°C 38.9°F3.8°C 49% 6.6 mph NNE10.6 kmh NNE 11.4 mph18.3 kmh 31.06 in1051.8 mb 0.00 in0.0 mm 0.00 in0.0 mm 0.00 in0.0 mm
01:10 PM 59.2°F15.1°C 39.5°F4.2°C 48% 5.8 mph NE9.3 kmh NE 11.4 mph18.3 kmh 31.06 in1051.8 mb 0.00 in0.0 mm 0.00 in0.0 mm 0.00 in0.0 mm
01:05 PM 60.6°F15.9°C 39.2°F4.0°C 45% 3.6 mph N5.8 kmh N 8.3 mph13.4 kmh 31.06 in1051.8 mb 0.00 in0.0 mm 0.00 in0.0 mm 0.00 in0.0 mm
01:00 PM 61.2°F16.2°C 41.3°F5.2°C 48% 2.2 mph WSW3.5 kmh WSW 5.4 mph8.7 kmh 31.06 in1051.8 mb 0.00 in0.0 mm 0.00 in0.0 mm 0.00 in0.0 mm
12:55 PM 59.5°F15.3°C 40.9°F4.9°C 50% 2.8 mph WSW4.5 kmh WSW 5.4 mph8.7 kmh 31.06 in1051.8 mb 0.00 in0.0 mm 0.00 in0.0 mm 0.00 in0.0 mm
12:50 PM 59.2°F15.1°C 39.5°F4.2°C 48% 3.1 mph WSW5.0 kmh WSW 5.4 mph8.7 kmh 31.06 in1051.8 mb 0.00 in0.0 mm 0.00 in0.0 mm 0.00 in0.0 mm
12:45 PM 59.7°F15.4°C 39.5°F4.2°C 47% 3.1 mph SW5.0 kmh SW 6.0 mph9.7 kmh 31.07 in1052.2 mb 0.00 in0.0 mm 0.00 in0.0 mm 0.00 in0.0 mm
12:40 PM 61.0°F16.1°C 40.1°F4.5°C 46% 3.0 mph S4.8 kmh S 6.9 mph11.1 kmh 31.07 in1052.2 mb 0.00 in0.0 mm 0.00 in0.0 mm 0.00 in0.0 mm
12:35 PM 61.2°F16.2°C 40.8°F4.9°C 47% 2.7 mph SW4.3 kmh SW 6.9 mph11.1 kmh 31.07 in1052.2 mb 0.00 in0.0 mm 0.00 in0.0 mm 0.00 in0.0 mm
12:30 PM 60.8°F16.0°C 41.0°F5.0°C 48% 2.7 mph S4.3 kmh S 6.9 mph11.1 kmh 31.07 in1052.2 mb 0.00 in0.0 mm 0.00 in0.0 mm 0.00 in0.0 mm
12:25 PM 59.7°F15.4°C 40.5°F4.7°C 49% 2.9 mph S4.7 kmh S 6.9 mph11.1 kmh 31.08 in1052.5 mb 0.00 in0.0 mm 0.00 in0.0 mm 0.00 in0.0 mm
12:20 PM 59.0°F15.0°C 39.9°F4.4°C 49% 3.0 mph SW4.8 kmh SW 5.4 mph8.7 kmh 31.08 in1052.5 mb 0.00 in0.0 mm 0.00 in0.0 mm 0.00 in0.0 mm
12:15 PM 58.8°F14.9°C 39.2°F4.0°C 48% 3.5 mph SSW5.6 kmh SSW 5.4 mph8.7 kmh 31.07 in1052.2 mb 0.00 in0.0 mm 0.00 in0.0 mm 0.00 in0.0 mm
12:10 PM 58.8°F14.9°C 39.7°F4.3°C 49% 3.8 mph SW6.1 kmh SW 5.4 mph8.7 kmh 31.08 in1052.5 mb 0.00 in0.0 mm 0.00 in0.0 mm 0.00 in0.0 mm
12:05 PM 57.7°F14.3°C 39.7°F4.3°C 51% 4.4 mph SW7.1 kmh SW 6.9 mph11.1 kmh 31.08 in1052.5 mb 0.00 in0.0 mm 0.00 in0.0 mm 0.00 in0.0 mm
12:00 PM 57.4°F14.1°C 39.4°F4.1°C 51% 3.9 mph SW6.3 kmh SW 6.9 mph11.1 kmh 31.08 in1052.5 mb 0.00 in0.0 mm 0.00 in0.0 mm 0.00 in0.0 mm
11:55 AM 56.7°F13.7°C 38.7°F3.7°C 51% 2.7 mph SW4.3 kmh SW 6.0 mph9.7 kmh 31.08 in1052.5 mb 0.00 in0.0 mm 0.00 in0.0 mm 0.00 in0.0 mm
11:50 AM 55.9°F13.3°C 38.6°F3.7°C 52% 2.7 mph NW4.3 kmh NW 6.0 mph9.7 kmh 31.08 in1052.5 mb 0.00 in0.0 mm 0.00 in0.0 mm 0.00 in0.0 mm
11:45 AM 55.0°F12.8°C 37.7°F3.2°C 52% 3.2 mph NW5.1 kmh NW 6.0 mph9.7 kmh 31.08 in1052.5 mb 0.00 in0.0 mm 0.00 in0.0 mm 0.00 in0.0 mm
11:40 AM 55.0°F12.8°C 37.7°F3.2°C 52% 3.5 mph NW5.6 kmh NW 6.9 mph11.1 kmh 31.08 in1052.5 mb 0.00 in0.0 mm 0.00 in0.0 mm 0.00 in0.0 mm
11:35 AM 55.0°F12.8°C 38.2°F3.4°C 53% 3.3 mph NW5.3 kmh NW 6.9 mph11.1 kmh 31.08 in1052.5 mb 0.00 in0.0 mm 0.00 in0.0 mm 0.00 in0.0 mm
11:30 AM 54.9°F12.7°C 38.5°F3.6°C 54% 3.5 mph WNW5.6 kmh WNW 6.9 mph11.1 kmh 31.08 in1052.5 mb 0.00 in0.0 mm 0.00 in0.0 mm 0.00 in0.0 mm
11:25 AM 54.1°F12.3°C 39.3°F4.1°C 57% 3.3 mph W5.3 kmh W 6.9 mph11.1 kmh 31.08 in1052.5 mb 0.00 in0.0 mm 0.00 in0.0 mm 0.00 in0.0 mm
11:20 AM 54.7°F12.6°C 38.4°F3.6°C 54% 3.3 mph WSW5.3 kmh WSW 6.0 mph9.7 kmh 31.08 in1052.5 mb 0.00 in0.0 mm 0.00 in0.0 mm 0.00 in0.0 mm
11:15 AM 54.0°F12.2°C 39.5°F4.2°C 58% 3.9 mph WSW6.3 kmh WSW 8.3 mph13.4 kmh 31.08 in1052.5 mb 0.00 in0.0 mm 0.00 in0.0 mm 0.00 in0.0 mm
11:10 AM 54.0°F12.2°C 40.4°F4.7°C 60% 3.9 mph WSW6.3 kmh WSW 9.2 mph14.8 kmh 31.08 in1052.5 mb 0.00 in0.0 mm 0.00 in0.0 mm 0.00 in0.0 mm
11:05 AM 53.4°F11.9°C 40.3°F4.6°C 61% 3.8 mph SSW6.1 kmh SSW 9.2 mph14.8 kmh 31.08 in1052.5 mb 0.00 in0.0 mm 0.00 in0.0 mm 0.00 in0.0 mm
11:00 AM 52.9°F11.6°C 39.8°F4.3°C 61% 3.6 mph S5.8 kmh S 9.2 mph14.8 kmh 31.09 in1052.8 mb 0.00 in0.0 mm 0.00 in0.0 mm 0.00 in0.0 mm
10:55 AM 52.9°F11.6°C 39.8°F4.3°C 61% 4.1 mph WNW6.6 kmh WNW 8.3 mph13.4 kmh 31.09 in1052.8 mb 0.00 in0.0 mm 0.00 in0.0 mm 0.00 in0.0 mm
10:50 AM 53.1°F11.7°C 40.0°F4.4°C 61% 4.5 mph NNW7.2 kmh NNW 8.3 mph13.4 kmh 31.09 in1052.8 mb 0.00 in0.0 mm 0.00 in0.0 mm 0.00 in0.0 mm
10:45 AM 52.9°F11.6°C 39.8°F4.3°C 61% 4.7 mph NNE7.6 kmh NNE 8.3 mph13.4 kmh 31.09 in1052.8 mb 0.00 in0.0 mm 0.00 in0.0 mm 0.00 in0.0 mm
10:40 AM 52.0°F11.1°C 39.8°F4.3°C 63% 4.9 mph NE7.9 kmh NE 9.2 mph14.8 kmh 31.09 in1052.8 mb 0.00 in0.0 mm 0.00 in0.0 mm 0.00 in0.0 mm
10:35 AM 50.7°F10.4°C 39.0°F3.9°C 64% 5.3 mph N8.5 kmh N 11.4 mph18.3 kmh 31.08 in1052.5 mb 0.00 in0.0 mm 0.00 in0.0 mm 0.00 in0.0 mm
10:30 AM 49.8°F9.9°C 38.1°F3.4°C 64% 5.7 mph N9.2 kmh N 11.4 mph18.3 kmh 31.09 in1052.8 mb 0.00 in0.0 mm 0.00 in0.0 mm 0.00 in0.0 mm
10:25 AM 49.5°F9.7°C 37.8°F3.2°C 64% 5.4 mph NNE8.7 kmh NNE 9.2 mph14.8 kmh 31.09 in1052.8 mb 0.00 in0.0 mm 0.00 in0.0 mm 0.00 in0.0 mm
10:20 AM 50.0°F10.0°C 37.9°F3.3°C 63% 5.5 mph NNE8.9 kmh NNE 9.8 mph15.8 kmh 31.09 in1052.8 mb 0.00 in0.0 mm 0.00 in0.0 mm 0.00 in0.0 mm
10:15 AM 50.2°F10.1°C 38.5°F3.6°C 64% 5.5 mph NE8.9 kmh NE 9.8 mph15.8 kmh 31.09 in1052.8 mb 0.00 in0.0 mm 0.00 in0.0 mm 0.00 in0.0 mm
10:10 AM 50.0°F10.0°C 38.7°F3.7°C 65% 6.1 mph NE9.8 kmh NE 9.8 mph15.8 kmh 31.10 in1053.2 mb 0.00 in0.0 mm 0.00 in0.0 mm 0.00 in0.0 mm
10:05 AM 49.6°F9.8°C 38.4°F3.6°C 65% 5.7 mph NNE9.2 kmh NNE 9.8 mph15.8 kmh 31.10 in1053.2 mb 0.00 in0.0 mm 0.00 in0.0 mm 0.00 in0.0 mm
10:00 AM 49.6°F9.8°C 38.0°F3.3°C 64% 4.4 mph N7.1 kmh N 9.8 mph15.8 kmh 31.10 in1053.2 mb 0.00 in0.0 mm 0.00 in0.0 mm 0.00 in0.0 mm
09:55 AM 49.6°F9.8°C 38.0°F3.3°C 64% 4.0 mph NNE6.4 kmh NNE 6.9 mph11.1 kmh 31.10 in1053.2 mb 0.00 in0.0 mm 0.00 in0.0 mm 0.00 in0.0 mm
09:50 AM 49.8°F9.9°C 38.1°F3.4°C 64% 2.5 mph N4.0 kmh N 6.9 mph11.1 kmh 31.10 in1053.2 mb 0.00 in0.0 mm 0.00 in0.0 mm 0.00 in0.0 mm
09:45 AM 50.0°F10.0°C 39.9°F4.4°C 68% 1.7 mph NE2.7 kmh NE 6.9 mph11.1 kmh 31.10 in1053.2 mb 0.00 in0.0 mm 0.00 in0.0 mm 0.00 in0.0 mm
09:40 AM 48.6°F9.2°C 38.9°F3.8°C 69% 2.7 mph NE4.3 kmh NE 6.9 mph11.1 kmh 31.11 in1053.5 mb 0.00 in0.0 mm 0.00 in0.0 mm 0.00 in0.0 mm
09:35 AM 48.0°F8.9°C 38.3°F3.5°C 69% 3.4 mph NE5.5 kmh NE 5.4 mph8.7 kmh 31.11 in1053.5 mb 0.00 in0.0 mm 0.00 in0.0 mm 0.00 in0.0 mm
09:30 AM 48.0°F8.9°C 38.0°F3.3°C 68% 3.2 mph NE5.1 kmh NE 5.4 mph8.7 kmh 31.11 in1053.5 mb 0.00 in0.0 mm 0.00 in0.0 mm 0.00 in0.0 mm
09:25 AM 48.2°F9.0°C 38.5°F3.6°C 69% 2.8 mph ENE4.5 kmh ENE 4.5 mph7.2 kmh 31.10 in1053.2 mb 0.00 in0.0 mm 0.00 in0.0 mm 0.00 in0.0 mm
09:20 AM 48.2°F9.0°C 38.9°F3.8°C 70% 2.5 mph NE4.0 kmh NE 4.5 mph7.2 kmh 31.10 in1053.2 mb 0.00 in0.0 mm 0.00 in0.0 mm 0.00 in0.0 mm
09:15 AM 47.8°F8.8°C 38.5°F3.6°C 70% 2.8 mph NNE4.5 kmh NNE 6.0 mph9.7 kmh 31.10 in1053.2 mb 0.00 in0.0 mm 0.00 in0.0 mm 0.00 in0.0 mm
09:10 AM 47.5°F8.6°C 38.2°F3.4°C 70% 2.9 mph N4.7 kmh N 6.0 mph9.7 kmh 31.11 in1053.5 mb 0.00 in0.0 mm 0.00 in0.0 mm 0.00 in0.0 mm
09:05 AM 48.0°F8.9°C 38.7°F3.7°C 70% 2.1 mph NNW3.4 kmh NNW 3.8 mph6.1 kmh 31.10 in1053.2 mb 0.00 in0.0 mm 0.00 in0.0 mm 0.00 in0.0 mm
09:00 AM 48.0°F8.9°C 38.7°F3.7°C 70% 1.8 mph N2.9 kmh N 3.8 mph6.1 kmh 31.11 in1053.5 mb 0.00 in0.0 mm 0.00 in0.0 mm 0.00 in0.0 mm
08:55 AM 47.5°F8.6°C 38.2°F3.4°C 70% 2.4 mph NNE3.9 kmh NNE 4.5 mph7.2 kmh 31.11 in1053.5 mb 0.00 in0.0 mm 0.00 in0.0 mm 0.00 in0.0 mm
08:50 AM 47.3°F8.5°C 38.4°F3.6°C 71% 2.5 mph NE4.0 kmh NE 4.5 mph7.2 kmh 31.11 in1053.5 mb 0.00 in0.0 mm 0.00 in0.0 mm 0.00 in0.0 mm
08:45 AM 46.9°F8.3°C 38.4°F3.6°C 72% 2.5 mph E4.0 kmh E 4.5 mph7.2 kmh 31.11 in1053.5 mb 0.00 in0.0 mm 0.00 in0.0 mm 0.00 in0.0 mm
08:40 AM 46.6°F8.1°C 38.0°F3.3°C 72% 2.8 mph E4.5 kmh E 4.5 mph7.2 kmh 31.11 in1053.5 mb 0.00 in0.0 mm 0.00 in0.0 mm 0.00 in0.0 mm
08:35 AM 46.2°F7.9°C 37.7°F3.2°C 72% 2.5 mph E4.0 kmh E 4.5 mph7.2 kmh 31.11 in1053.5 mb 0.00 in0.0 mm 0.00 in0.0 mm 0.00 in0.0 mm
08:30 AM 46.0°F7.8°C 37.5°F3.1°C 72% 2.6 mph ENE4.2 kmh ENE 5.4 mph8.7 kmh 31.11 in1053.5 mb 0.00 in0.0 mm 0.00 in0.0 mm 0.00 in0.0 mm
08:25 AM 45.7°F7.6°C 37.2°F2.9°C 72% 2.9 mph E4.7 kmh E 5.4 mph8.7 kmh 31.11 in1053.5 mb 0.00 in0.0 mm 0.00 in0.0 mm 0.00 in0.0 mm
08:20 AM 45.9°F7.7°C 37.4°F3.0°C 72% 2.0 mph ENE3.2 kmh ENE 4.5 mph7.2 kmh 31.11 in1053.5 mb 0.00 in0.0 mm 0.00 in0.0 mm 0.00 in0.0 mm
08:15 AM 46.0°F7.8°C 37.5°F3.1°C 72% 1.3 mph NNW2.1 kmh NNW 3.8 mph6.1 kmh 31.11 in1053.5 mb 0.00 in0.0 mm 0.00 in0.0 mm 0.00 in0.0 mm
08:10 AM 46.0°F7.8°C 37.5°F3.1°C 72% 1.5 mph NW2.4 kmh NW 3.8 mph6.1 kmh 31.11 in1053.5 mb 0.00 in0.0 mm 0.00 in0.0 mm 0.00 in0.0 mm
08:05 AM 45.9°F7.7°C 37.4°F3.0°C 72% 1.2 mph NW1.9 kmh NW 3.1 mph5.0 kmh 31.11 in1053.5 mb 0.00 in0.0 mm 0.00 in0.0 mm 0.00 in0.0 mm
08:00 AM 45.7°F7.6°C 37.5°F3.1°C 73% 1.3 mph N2.1 kmh N 3.8 mph6.1 kmh 31.11 in1053.5 mb 0.00 in0.0 mm 0.00 in0.0 mm 0.00 in0.0 mm
07:55 AM 45.5°F7.5°C 37.4°F3.0°C 73% 2.0 mph NNE3.2 kmh NNE 4.5 mph7.2 kmh 31.11 in1053.5 mb 0.00 in0.0 mm 0.00 in0.0 mm 0.00 in0.0 mm
07:50 AM 45.5°F7.5°C 37.4°F3.0°C 73% 2.4 mph N3.9 kmh N 6.0 mph9.7 kmh 31.10 in1053.2 mb 0.00 in0.0 mm 0.00 in0.0 mm 0.00 in0.0 mm
07:45 AM 45.3°F7.4°C 39.5°F4.2°C 80% 3.5 mph N5.6 kmh N 6.0 mph9.7 kmh 31.11 in1053.5 mb 0.00 in0.0 mm 0.00 in0.0 mm 0.00 in0.0 mm
07:40 AM 45.1°F7.3°C 39.0°F3.9°C 79% 3.9 mph N6.3 kmh N 6.0 mph9.7 kmh 31.10 in1053.2 mb 0.00 in0.0 mm 0.00 in0.0 mm 0.00 in0.0 mm
07:35 AM 45.5°F7.5°C 37.0°F2.8°C 72% 3.0 mph N4.8 kmh N 6.0 mph9.7 kmh 31.10 in1053.2 mb 0.00 in0.0 mm 0.00 in0.0 mm 0.00 in0.0 mm
07:30 AM 45.9°F7.7°C 37.4°F3.0°C 72% 1.9 mph NNE3.1 kmh NNE 5.4 mph8.7 kmh 31.10 in1053.2 mb 0.00 in0.0 mm 0.00 in0.0 mm 0.00 in0.0 mm
07:25 AM 45.7°F7.6°C 37.2°F2.9°C 72% 2.3 mph N3.7 kmh N 5.4 mph8.7 kmh 31.10 in1053.2 mb 0.00 in0.0 mm 0.00 in0.0 mm 0.00 in0.0 mm
07:20 AM 45.1°F7.3°C 38.4°F3.6°C 77% 3.2 mph N5.1 kmh N 9.2 mph14.8 kmh 31.11 in1053.5 mb 0.00 in0.0 mm 0.00 in0.0 mm 0.00 in0.0 mm
07:15 AM 45.1°F7.3°C 38.4°F3.6°C 77% 3.6 mph NNW5.8 kmh NNW 9.2 mph14.8 kmh 31.10 in1053.2 mb 0.00 in0.0 mm 0.00 in0.0 mm 0.00 in0.0 mm
07:10 AM 45.1°F7.3°C 38.7°F3.7°C 78% 2.9 mph N4.7 kmh N 9.2 mph14.8 kmh 31.10 in1053.2 mb 0.00 in0.0 mm 0.00 in0.0 mm 0.00 in0.0 mm
07:05 AM 45.3°F7.4°C 39.2°F4.0°C 79% 2.7 mph NNE4.3 kmh NNE 6.0 mph9.7 kmh 31.10 in1053.2 mb 0.00 in0.0 mm 0.00 in0.0 mm 0.00 in0.0 mm
07:00 AM 45.1°F7.3°C 39.0°F3.9°C 79% 2.4 mph N3.9 kmh N 6.0 mph9.7 kmh 31.10 in1053.2 mb 0.00 in0.0 mm 0.00 in0.0 mm 0.00 in0.0 mm
06:55 AM 45.1°F7.3°C 39.3°F4.1°C 80% 2.5 mph N4.0 kmh N 6.9 mph11.1 kmh 31.10 in1053.2 mb 0.00 in0.0 mm 0.00 in0.0 mm 0.00 in0.0 mm
06:50 AM 44.8°F7.1°C 39.0°F3.9°C 80% 3.1 mph NNE5.0 kmh NNE 6.9 mph11.1 kmh 31.10 in1053.2 mb 0.00 in0.0 mm 0.00 in0.0 mm 0.00 in0.0 mm
06:45 AM 45.0°F7.2°C 39.2°F4.0°C 80% 3.0 mph N4.8 kmh N 6.9 mph11.1 kmh 31.11 in1053.5 mb 0.00 in0.0 mm 0.00 in0.0 mm 0.00 in0.0 mm
06:40 AM 45.0°F7.2°C 39.2°F4.0°C 80% 3.2 mph N5.1 kmh N 6.9 mph11.1 kmh 31.10 in1053.2 mb 0.00 in0.0 mm 0.00 in0.0 mm 0.00 in0.0 mm
06:35 AM 44.8°F7.1°C 39.3°F4.1°C 81% 3.4 mph NNE5.5 kmh NNE 8.3 mph13.4 kmh 31.10 in1053.2 mb 0.00 in0.0 mm 0.00 in0.0 mm 0.00 in0.0 mm
06:30 AM 44.6°F7.0°C 39.1°F3.9°C 81% 3.8 mph N6.1 kmh N 8.3 mph13.4 kmh 31.10 in1053.2 mb 0.00 in0.0 mm 0.00 in0.0 mm 0.00 in0.0 mm
06:25 AM 44.6°F7.0°C 39.1°F3.9°C 81% 3.5 mph N5.6 kmh N 6.0 mph9.7 kmh 31.10 in1053.2 mb 0.00 in0.0 mm 0.00 in0.0 mm 0.00 in0.0 mm
06:20 AM 44.6°F7.0°C 39.1°F3.9°C 81% 3.1 mph N5.0 kmh N 6.9 mph11.1 kmh 31.10 in1053.2 mb 0.00 in0.0 mm 0.00 in0.0 mm 0.00 in0.0 mm
06:15 AM 44.6°F7.0°C 39.1°F3.9°C 81% 2.6 mph N4.2 kmh N 6.9 mph11.1 kmh 31.10 in1053.2 mb 0.00 in0.0 mm 0.00 in0.0 mm 0.00 in0.0 mm
06:10 AM 44.6°F7.0°C 39.1°F3.9°C 81% 1.9 mph N3.1 kmh N 6.9 mph11.1 kmh 31.10 in1053.2 mb 0.00 in0.0 mm 0.00 in0.0 mm 0.00 in0.0 mm
06:05 AM 44.6°F7.0°C 39.1°F3.9°C 81% 1.6 mph N2.6 kmh N 4.5 mph7.2 kmh 31.10 in1053.2 mb 0.00 in0.0 mm 0.00 in0.0 mm 0.00 in0.0 mm
06:00 AM 44.6°F7.0°C 39.5°F4.2°C 82% 1.7 mph NNW2.7 kmh NNW 4.5 mph7.2 kmh 31.10 in1053.2 mb 0.00 in0.0 mm 0.00 in0.0 mm 0.00 in0.0 mm
05:55 AM 44.6°F7.0°C 39.5°F4.2°C 82% 1.8 mph NW2.9 kmh NW 3.8 mph6.1 kmh 31.10 in1053.2 mb 0.00 in0.0 mm 0.00 in0.0 mm 0.00 in0.0 mm
05:50 AM 44.6°F7.0°C 39.5°F4.2°C 82% 1.6 mph WSW2.6 kmh WSW 3.8 mph6.1 kmh 31.10 in1053.2 mb 0.00 in0.0 mm 0.00 in0.0 mm 0.00 in0.0 mm
05:45 AM 44.4°F6.9°C 39.3°F4.1°C 82% 2.0 mph SW3.2 kmh SW 5.4 mph8.7 kmh 31.10 in1053.2 mb 0.00 in0.0 mm 0.00 in0.0 mm 0.00 in0.0 mm
05:40 AM 44.4°F6.9°C 39.3°F4.1°C 82% 2.4 mph W3.9 kmh W 5.4 mph8.7 kmh 31.10 in1053.2 mb 0.00 in0.0 mm 0.00 in0.0 mm 0.00 in0.0 mm
05:35 AM 44.4°F6.9°C 39.3°F4.1°C 82% 2.3 mph WSW3.7 kmh WSW 5.4 mph8.7 kmh 31.10 in1053.2 mb 0.00 in0.0 mm 0.00 in0.0 mm 0.00 in0.0 mm
05:30 AM 44.4°F6.9°C 39.3°F4.1°C 82% 2.1 mph W3.4 kmh W 4.5 mph7.2 kmh 31.10 in1053.2 mb 0.00 in0.0 mm 0.00 in0.0 mm 0.00 in0.0 mm
05:25 AM 44.4°F6.9°C 39.3°F4.1°C 82% 2.1 mph NNW3.4 kmh NNW 4.5 mph7.2 kmh 31.10 in1053.2 mb 0.00 in0.0 mm 0.00 in0.0 mm 0.00 in0.0 mm
05:20 AM 44.4°F6.9°C 39.3°F4.1°C 82% 2.1 mph W3.4 kmh W 4.5 mph7.2 kmh 31.11 in1053.5 mb 0.00 in0.0 mm 0.00 in0.0 mm 0.00 in0.0 mm
05:15 AM 44.4°F6.9°C 39.3°F4.1°C 82% 2.2 mph W3.5 kmh W 6.9 mph11.1 kmh 31.10 in1053.2 mb 0.00 in0.0 mm 0.00 in0.0 mm 0.00 in0.0 mm
05:10 AM 44.4°F6.9°C 39.3°F4.1°C 82% 2.1 mph W3.4 kmh W 6.9 mph11.1 kmh 31.10 in1053.2 mb 0.00 in0.0 mm 0.00 in0.0 mm 0.00 in0.0 mm
05:05 AM 44.4°F6.9°C 39.0°F3.9°C 81% 2.0 mph NW3.2 kmh NW 4.5 mph7.2 kmh 31.11 in1053.5 mb 0.00 in0.0 mm 0.00 in0.0 mm 0.00 in0.0 mm
05:00 AM 44.4°F6.9°C 39.3°F4.1°C 82% 2.0 mph WNW3.2 kmh WNW 4.5 mph7.2 kmh 31.10 in1053.2 mb 0.00 in0.0 mm 0.00 in0.0 mm 0.00 in0.0 mm
04:55 AM 44.4°F6.9°C 39.3°F4.1°C 82% 1.8 mph S2.9 kmh S 5.4 mph8.7 kmh 31.10 in1053.2 mb 0.00 in0.0 mm 0.00 in0.0 mm 0.00 in0.0 mm
04:50 AM 44.4°F6.9°C 39.6°F4.2°C 83% 2.6 mph SSW4.2 kmh SSW 7.6 mph12.2 kmh 31.11 in1053.5 mb 0.00 in0.0 mm 0.00 in0.0 mm 0.00 in0.0 mm
04:45 AM 44.2°F6.8°C 39.4°F4.1°C 83% 2.9 mph SW4.7 kmh SW 7.6 mph12.2 kmh 31.10 in1053.2 mb 0.00 in0.0 mm 0.00 in0.0 mm 0.00 in0.0 mm
04:40 AM 44.2°F6.8°C 39.4°F4.1°C 83% 2.5 mph NW4.0 kmh NW 5.4 mph8.7 kmh 31.11 in1053.5 mb 0.00 in0.0 mm 0.00 in0.0 mm 0.00 in0.0 mm
04:35 AM 44.1°F6.7°C 39.2°F4.0°C 83% 2.3 mph NW3.7 kmh NW 5.4 mph8.7 kmh 31.11 in1053.5 mb 0.00 in0.0 mm 0.00 in0.0 mm 0.00 in0.0 mm
04:30 AM 43.9°F6.6°C 39.4°F4.1°C 84% 2.6 mph W4.2 kmh W 7.6 mph12.2 kmh 31.11 in1053.5 mb 0.00 in0.0 mm 0.00 in0.0 mm 0.00 in0.0 mm
04:25 AM 43.9°F6.6°C 39.4°F4.1°C 84% 2.8 mph NW4.5 kmh NW 7.6 mph12.2 kmh 31.11 in1053.5 mb 0.00 in0.0 mm 0.00 in0.0 mm 0.00 in0.0 mm
04:20 AM 43.9°F6.6°C 39.1°F3.9°C 83% 2.5 mph NNW4.0 kmh NNW 5.4 mph8.7 kmh 31.11 in1053.5 mb 0.00 in0.0 mm 0.00 in0.0 mm 0.00 in0.0 mm
04:15 AM 43.7°F6.5°C 38.9°F3.8°C 83% 2.9 mph N4.7 kmh N 6.9 mph11.1 kmh 31.11 in1053.5 mb 0.00 in0.0 mm 0.00 in0.0 mm 0.00 in0.0 mm
04:10 AM 43.9°F6.6°C 39.1°F3.9°C 83% 3.8 mph NNW6.1 kmh NNW 6.9 mph11.1 kmh 31.11 in1053.5 mb 0.00 in0.0 mm 0.00 in0.0 mm 0.00 in0.0 mm
04:05 AM 43.7°F6.5°C 39.2°F4.0°C 84% 3.8 mph NW6.1 kmh NW 6.9 mph11.1 kmh 31.11 in1053.5 mb 0.00 in0.0 mm 0.00 in0.0 mm 0.00 in0.0 mm
04:00 AM 43.7°F6.5°C 39.2°F4.0°C 84% 3.9 mph NNW6.3 kmh NNW 7.6 mph12.2 kmh 31.11 in1053.5 mb 0.00 in0.0 mm 0.00 in0.0 mm 0.00 in0.0 mm
03:55 AM 43.7°F6.5°C 39.2°F4.0°C 84% 4.3 mph NW6.9 kmh NW 7.6 mph12.2 kmh 31.11 in1053.5 mb 0.00 in0.0 mm 0.00 in0.0 mm 0.00 in0.0 mm
03:50 AM 43.7°F6.5°C 39.2°F4.0°C 84% 3.4 mph NW5.5 kmh NW 7.6 mph12.2 kmh 31.11 in1053.5 mb 0.00 in0.0 mm 0.00 in0.0 mm 0.00 in0.0 mm
03:45 AM 43.9°F6.6°C 39.1°F3.9°C 83% 3.2 mph NW5.1 kmh NW 7.6 mph12.2 kmh 31.11 in1053.5 mb 0.00 in0.0 mm 0.00 in0.0 mm 0.00 in0.0 mm
03:40 AM 43.9°F6.6°C 39.1°F3.9°C 83% 3.5 mph NW5.6 kmh NW 6.0 mph9.7 kmh 31.11 in1053.5 mb 0.00 in0.0 mm 0.00 in0.0 mm 0.00 in0.0 mm
03:35 AM 44.1°F6.7°C 39.2°F4.0°C 83% 3.8 mph NW6.1 kmh NW 6.9 mph11.1 kmh 31.11 in1053.5 mb 0.00 in0.0 mm 0.00 in0.0 mm 0.00 in0.0 mm
03:30 AM 44.1°F6.7°C 39.2°F4.0°C 83% 3.4 mph NNW5.5 kmh NNW 6.9 mph11.1 kmh 31.11 in1053.5 mb 0.00 in0.0 mm 0.00 in0.0 mm 0.00 in0.0 mm
03:25 AM 44.2°F6.8°C 39.4°F4.1°C 83% 2.4 mph N3.9 kmh N 6.0 mph9.7 kmh 31.11 in1053.5 mb 0.00 in0.0 mm 0.00 in0.0 mm 0.00 in0.0 mm
03:20 AM 44.2°F6.8°C 39.1°F3.9°C 82% 2.1 mph NW3.4 kmh NW 5.4 mph8.7 kmh 31.11 in1053.5 mb 0.00 in0.0 mm 0.00 in0.0 mm 0.00 in0.0 mm
03:15 AM 44.2°F6.8°C 39.1°F3.9°C 82% 2.1 mph WNW3.4 kmh WNW 5.4 mph8.7 kmh 31.11 in1053.5 mb 0.00 in0.0 mm 0.00 in0.0 mm 0.00 in0.0 mm
03:10 AM 44.2°F6.8°C 39.4°F4.1°C 83% 2.0 mph WSW3.2 kmh WSW 5.4 mph8.7 kmh 31.11 in1053.5 mb 0.00 in0.0 mm 0.00 in0.0 mm 0.00 in0.0 mm
03:05 AM 44.1°F6.7°C 39.5°F4.2°C 84% 1.9 mph WSW3.1 kmh WSW 3.8 mph6.1 kmh 31.11 in1053.5 mb 0.00 in0.0 mm 0.00 in0.0 mm 0.00 in0.0 mm
03:00 AM 44.1°F6.7°C 39.5°F4.2°C 84% 1.3 mph WNW2.1 kmh WNW 3.8 mph6.1 kmh 31.11 in1053.5 mb 0.00 in0.0 mm 0.00 in0.0 mm 0.00 in0.0 mm
02:55 AM 44.1°F6.7°C 39.5°F4.2°C 84% 0.6 mph NW1.0 kmh NW 3.1 mph5.0 kmh 31.11 in1053.5 mb 0.00 in0.0 mm 0.00 in0.0 mm 0.00 in0.0 mm
02:50 AM 44.1°F6.7°C 39.8°F4.3°C 85% 0.4 mph NNW0.6 kmh NNW 3.1 mph5.0 kmh 31.11 in1053.5 mb 0.00 in0.0 mm 0.00 in0.0 mm 0.00 in0.0 mm
02:45 AM 43.9°F6.6°C 39.7°F4.3°C 85% 1.4 mph NNW2.3 kmh NNW 3.8 mph6.1 kmh 31.11 in1053.5 mb 0.00 in0.0 mm 0.00 in0.0 mm 0.00 in0.0 mm
02:40 AM 43.9°F6.6°C 39.7°F4.3°C 85% 1.9 mph NNW3.1 kmh NNW 3.8 mph6.1 kmh 31.11 in1053.5 mb 0.00 in0.0 mm 0.00 in0.0 mm 0.00 in0.0 mm
02:35 AM 43.9°F6.6°C 39.7°F4.3°C 85% 1.9 mph WNW3.1 kmh WNW 4.5 mph7.2 kmh 31.12 in1053.8 mb 0.00 in0.0 mm 0.00 in0.0 mm 0.00 in0.0 mm
02:30 AM 43.7°F6.5°C 39.5°F4.2°C 85% 2.5 mph NW4.0 kmh NW 4.5 mph7.2 kmh 31.11 in1053.5 mb 0.00 in0.0 mm 0.00 in0.0 mm 0.00 in0.0 mm
02:25 AM 43.5°F6.4°C 39.3°F4.1°C 85% 3.0 mph N4.8 kmh N 4.5 mph7.2 kmh 31.11 in1053.5 mb 0.00 in0.0 mm 0.00 in0.0 mm 0.00 in0.0 mm
02:20 AM 43.5°F6.4°C 39.3°F4.1°C 85% 3.2 mph N5.1 kmh N 4.5 mph7.2 kmh 31.11 in1053.5 mb 0.00 in0.0 mm 0.00 in0.0 mm 0.00 in0.0 mm
02:15 AM 43.7°F6.5°C 39.5°F4.2°C 85% 3.3 mph NW5.3 kmh NW 6.0 mph9.7 kmh 31.12 in1053.8 mb 0.00 in0.0 mm 0.00 in0.0 mm 0.00 in0.0 mm
02:10 AM 43.7°F6.5°C 39.5°F4.2°C 85% 3.7 mph NNW6.0 kmh NNW 6.0 mph9.7 kmh 31.11 in1053.5 mb 0.00 in0.0 mm 0.00 in0.0 mm 0.00 in0.0 mm
02:05 AM 43.5°F6.4°C 39.3°F4.1°C 85% 3.9 mph N6.3 kmh N 7.6 mph12.2 kmh 31.11 in1053.5 mb 0.00 in0.0 mm 0.00 in0.0 mm 0.00 in0.0 mm
02:00 AM 43.5°F6.4°C 39.3°F4.1°C 85% 4.1 mph N6.6 kmh N 7.6 mph12.2 kmh 31.11 in1053.5 mb 0.00 in0.0 mm 0.00 in0.0 mm 0.00 in0.0 mm
01:55 AM 43.7°F6.5°C 39.5°F4.2°C 85% 4.8 mph N7.7 kmh N 9.2 mph14.8 kmh 31.11 in1053.5 mb 0.00 in0.0 mm 0.00 in0.0 mm 0.00 in0.0 mm
01:50 AM 43.5°F6.4°C 39.3°F4.1°C 85% 4.5 mph N7.2 kmh N 9.2 mph14.8 kmh 31.11 in1053.5 mb 0.00 in0.0 mm 0.00 in0.0 mm 0.00 in0.0 mm
01:45 AM 43.5°F6.4°C 39.3°F4.1°C 85% 4.1 mph N6.6 kmh N 9.2 mph14.8 kmh 31.11 in1053.5 mb 0.00 in0.0 mm 0.00 in0.0 mm 0.00 in0.0 mm
01:40 AM 43.5°F6.4°C 39.3°F4.1°C 85% 4.7 mph NW7.6 kmh NW 9.2 mph14.8 kmh 31.11 in1053.5 mb 0.00 in0.0 mm 0.00 in0.0 mm 0.00 in0.0 mm
01:35 AM 43.5°F6.4°C 39.3°F4.1°C 85% 4.2 mph NW6.8 kmh NW 9.2 mph14.8 kmh 31.11 in1053.5 mb 0.00 in0.0 mm 0.00 in0.0 mm 0.00 in0.0 mm
01:30 AM 43.7°F6.5°C 39.5°F4.2°C 85% 3.8 mph NW6.1 kmh NW 9.2 mph14.8 kmh 31.11 in1053.5 mb 0.00 in0.0 mm 0.00 in0.0 mm 0.00 in0.0 mm
01:25 AM 43.5°F6.4°C 39.3°F4.1°C 85% 3.6 mph NNW5.8 kmh NNW 7.6 mph12.2 kmh 31.11 in1053.5 mb 0.00 in0.0 mm 0.00 in0.0 mm 0.00 in0.0 mm
01:20 AM 43.5°F6.4°C 39.3°F4.1°C 85% 3.5 mph W5.6 kmh W 7.6 mph12.2 kmh 31.11 in1053.5 mb 0.00 in0.0 mm 0.00 in0.0 mm 0.00 in0.0 mm
01:15 AM 43.5°F6.4°C 39.3°F4.1°C 85% 4.3 mph WNW6.9 kmh WNW 9.8 mph15.8 kmh 31.11 in1053.5 mb 0.00 in0.0 mm 0.00 in0.0 mm 0.00 in0.0 mm
01:10 AM 43.5°F6.4°C 39.3°F4.1°C 85% 3.7 mph NNW6.0 kmh NNW 9.8 mph15.8 kmh 31.11 in1053.5 mb 0.00 in0.0 mm 0.00 in0.0 mm 0.00 in0.0 mm
01:05 AM 43.7°F6.5°C 39.5°F4.2°C 85% 3.3 mph N5.3 kmh N 8.3 mph13.4 kmh 31.11 in1053.5 mb 0.00 in0.0 mm 0.00 in0.0 mm 0.00 in0.0 mm
01:00 AM 43.7°F6.5°C 39.2°F4.0°C 84% 4.0 mph NNW6.4 kmh NNW 8.3 mph13.4 kmh 31.11 in1053.5 mb 0.00 in0.0 mm 0.00 in0.0 mm 0.00 in0.0 mm
12:55 AM 43.7°F6.5°C 39.2°F4.0°C 84% 3.5 mph NNW5.6 kmh NNW 8.3 mph13.4 kmh 31.12 in1053.8 mb 0.00 in0.0 mm 0.00 in0.0 mm 0.00 in0.0 mm
12:50 AM 43.7°F6.5°C 39.2°F4.0°C 84% 2.9 mph NW4.7 kmh NW 6.0 mph9.7 kmh 31.12 in1053.8 mb 0.00 in0.0 mm 0.00 in0.0 mm 0.00 in0.0 mm
12:45 AM 43.9°F6.6°C 39.7°F4.3°C 85% 2.3 mph WNW3.7 kmh WNW 6.0 mph9.7 kmh 31.12 in1053.8 mb 0.00 in0.0 mm 0.00 in0.0 mm 0.00 in0.0 mm
12:40 AM 43.7°F6.5°C 39.8°F4.3°C 86% 1.5 mph NW2.4 kmh NW 4.5 mph7.2 kmh 31.12 in1053.8 mb 0.00 in0.0 mm 0.00 in0.0 mm 0.00 in0.0 mm
12:35 AM 43.7°F6.5°C 39.8°F4.3°C 86% 1.4 mph NW2.3 kmh NW 4.5 mph7.2 kmh 31.12 in1053.8 mb 0.00 in0.0 mm 0.00 in0.0 mm 0.00 in0.0 mm
12:30 AM 43.5°F6.4°C 39.6°F4.2°C 86% 1.7 mph N2.7 kmh N 3.1 mph5.0 kmh 31.12 in1053.8 mb 0.00 in0.0 mm 0.00 in0.0 mm 0.00 in0.0 mm
12:25 AM 43.5°F6.4°C 39.6°F4.2°C 86% 1.9 mph N3.1 kmh N 5.4 mph8.7 kmh 31.12 in1053.8 mb 0.00 in0.0 mm 0.00 in0.0 mm 0.00 in0.0 mm
12:20 AM 43.5°F6.4°C 39.9°F4.4°C 87% 2.4 mph N3.9 kmh N 6.0 mph9.7 kmh 31.12 in1053.8 mb 0.00 in0.0 mm 0.00 in0.0 mm 0.00 in0.0 mm
12:15 AM 43.3°F6.3°C 39.7°F4.3°C 87% 3.1 mph N5.0 kmh N 9.2 mph14.8 kmh 31.12 in1053.8 mb 0.00 in0.0 mm 0.00 in0.0 mm 0.00 in0.0 mm
12:10 AM 43.3°F6.3°C 39.7°F4.3°C 87% 4.1 mph N6.6 kmh N 9.2 mph14.8 kmh 31.12 in1053.8 mb 0.00 in0.0 mm 0.00 in0.0 mm 0.00 in0.0 mm
12:05 AM 43.3°F6.3°C 39.7°F4.3°C 87% 4.8 mph NNW7.7 kmh NNW 8.3 mph13.4 kmh 31.12 in1053.8 mb 0.00 in0.0 mm 0.00 in0.0 mm 0.00 in0.0 mm
12:00 AM 43.2°F6.2°C 39.6°F4.2°C 87% 4.5 mph NW7.2 kmh NW 8.3 mph13.4 kmh 31.12 in1053.8 mb 0.00 in0.0 mm 0.00 in0.0 mm 0.00 in0.0 mm